Time;durP1;ratioP1;P1;durP2;ratioP2;P2;SDS_P1;SDS_P2;PMS_P1;PMS_P2;Temp;Humidity;BMP_temperature;BMP_pressure;BME280_temperature;BME280_humidity;BME280_pressure;Samples;Min_cycle;Max_cycle;Signal;HPM_P1;HPM_P2
2022/07/07 00:01:39;;;;;;;15.15;9.80;;;;;;;18.97;68.80;102008.56;5005754;28;20034;-56
2022/07/07 00:04:05;;;;;;;14.15;9.40;;;;;;;18.92;68.73;102004.13;5007606;28;20096;-56
2022/07/07 00:06:31;;;;;;;13.35;9.02;;;;;;;18.88;68.89;102002.31;5007275;28;20022;-56
2022/07/07 00:08:57;;;;;;;14.55;9.00;;;;;;;18.83;69.12;101992.56;5006098;28;20026;-56
2022/07/07 00:11:23;;;;;;;13.10;9.02;;;;;;;18.79;69.50;101996.06;5006666;28;20029;-55
2022/07/07 00:13:49;;;;;;;17.65;9.45;;;;;;;18.74;69.53;101988.09;5002504;28;20034;-56
2022/07/07 00:16:15;;;;;;;13.63;8.75;;;;;;;18.74;69.57;101994.28;5008850;28;20037;-49
2022/07/07 00:18:40;;;;;;;15.52;9.18;;;;;;;18.76;69.19;101992.53;5007387;28;20141;-48
2022/07/07 00:21:06;;;;;;;14.05;8.93;;;;;;;18.74;69.10;101983.72;5005957;28;20442;-48
2022/07/07 00:23:32;;;;;;;14.98;9.68;;;;;;;18.71;69.50;101982.78;5007018;28;20084;-48
2022/07/07 00:25:57;;;;;;;15.68;9.43;;;;;;;18.68;69.53;101978.34;5006282;28;20064;-48
2022/07/07 00:28:23;;;;;;;12.18;8.25;;;;;;;18.69;69.20;101972.22;5006759;28;20117;-50
2022/07/07 00:30:48;;;;;;;12.30;8.52;;;;;;;18.69;69.44;101972.22;5005769;28;20113;-47
2022/07/07 00:33:14;;;;;;;11.98;8.52;;;;;;;18.63;69.92;101958.97;5012726;28;20026;-48
2022/07/07 00:35:40;;;;;;;12.25;7.88;;;;;;;18.63;69.47;101958.09;5011383;28;20026;-48
2022/07/07 00:38:05;;;;;;;14.10;8.15;;;;;;;18.62;69.93;101948.41;5012178;28;20036;-49
2022/07/07 00:40:31;;;;;;;12.32;8.48;;;;;;;18.64;69.82;101954.56;5010717;28;20053;-49
2022/07/07 00:42:57;;;;;;;11.23;7.78;;;;;;;18.66;69.47;101947.56;5009725;28;22061;-47
2022/07/07 00:45:23;;;;;;;14.23;7.93;;;;;;;18.64;69.93;101949.28;5012356;28;20133;-51
2022/07/07 00:47:49;;;;;;;12.38;8.23;;;;;;;18.64;69.45;101944.91;5009845;28;20188;-49
2022/07/07 00:50:14;;;;;;;11.25;7.82;;;;;;;18.66;69.44;101944.91;5008112;28;20527;-48
2022/07/07 00:52:39;;;;;;;14.27;8.10;;;;;;;18.66;69.66;101945.78;5010699;28;20487;-49
2022/07/07 00:55:08;;;;;;;12.98;8.15;;;;;;;18.65;70.11;101940.50;5011168;28;20168;-47
2022/07/07 00:57:34;;;;;;;14.82;9.00;;;;;;;18.65;69.84;101943.16;5010237;28;20045;-47
2022/07/07 01:00:04;;;;;;;12.27;8.90;;;;;;;18.58;70.42;101934.28;5011085;28;20029;-49
2022/07/07 01:02:31;;;;;;;14.38;8.27;;;;;;;18.50;70.87;101930.72;5007128;28;20034;-48
2022/07/07 01:05:01;;;;;;;14.68;9.18;;;;;;;18.47;70.84;101931.56;5011107;28;20042;-48
2022/07/07 01:07:27;;;;;;;11.30;7.65;;;;;;;18.48;70.64;101933.34;5008110;28;20516;-47
2022/07/07 01:09:54;;;;;;;12.73;8.48;;;;;;;18.45;71.30;101933.31;5008865;28;20500;-48
2022/07/07 01:12:19;;;;;;;13.30;8.60;;;;;;;18.44;71.33;101939.47;5010180;28;20061;-49
2022/07/07 01:14:45;;;;;;;12.27;8.50;;;;;;;18.45;70.93;101942.97;5012536;28;20061;-48
2022/07/07 01:17:10;;;;;;;14.85;8.52;;;;;;;18.46;71.02;101934.19;5008015;28;20041;-56
2022/07/07 01:19:35;;;;;;;12.40;8.00;;;;;;;18.47;71.35;101933.34;5011301;28;20554;-56
2022/07/07 01:22:06;;;;;;;12.13;8.07;;;;;;;18.48;71.22;101941.25;5012069;28;20540;-56
2022/07/07 01:24:32;;;;;;;12.48;8.18;;;;;;;18.48;71.15;101933.34;5008865;28;20092;-56
2022/07/07 01:27:08;;;;;;;12.77;8.50;;;;;;;18.49;71.09;101928.94;5010860;28;20030;-56
2022/07/07 01:29:38;;;;;;;11.98;7.55;;;;;;;18.45;71.80;101937.69;5002545;28;20033;-56
2022/07/07 01:32:05;;;;;;;14.02;8.20;;;;;;;18.46;71.51;101928.91;5008905;28;20105;-56
2022/07/07 01:34:31;;;;;;;14.65;8.30;;;;;;;18.45;71.37;101927.16;5008447;28;20030;-56
2022/07/07 01:36:57;;;;;;;13.15;8.80;;;;;;;18.41;71.48;101921.84;5006233;28;20030;-56
2022/07/07 01:39:22;;;;;;;12.82;8.40;;;;;;;18.44;71.03;101915.72;5010460;28;20107;-56
2022/07/07 01:41:47;;;;;;;15.10;8.65;;;;;;;18.44;71.40;101913.06;5005982;28;20037;-56
2022/07/07 01:44:13;;;;;;;13.27;8.23;;;;;;;18.43;71.51;101908.66;5007688;28;20033;-56
2022/07/07 01:46:38;;;;;;;14.20;9.07;;;;;;;18.40;72.19;101904.22;5011005;28;20121;-47
2022/07/07 01:49:04;;;;;;;16.60;8.38;;;;;;;18.41;71.89;101906.00;5008687;28;20116;-50
2022/07/07 01:51:29;;;;;;;13.15;7.82;;;;;;;18.41;71.92;101902.50;5008003;28;20452;-50
2022/07/07 01:53:57;;;;;;;12.98;8.27;;;;;;;18.42;71.73;101906.88;5008790;28;20084;-49
2022/07/07 01:56:22;;;;;;;13.63;8.33;;;;;;;18.40;72.27;101906.00;5010165;28;20050;-50
2022/07/07 01:58:48;;;;;;;12.75;8.25;;;;;;;18.38;72.02;101897.19;5009378;28;20538;-48
2022/07/07 02:01:13;;;;;;;13.43;8.77;;;;;;;18.38;72.43;101899.84;5008399;28;20527;-47
2022/07/07 02:03:38;;;;;;;16.02;8.80;;;;;;;18.34;72.88;101904.19;5011166;28;20052;-50
2022/07/07 02:06:04;;;;;;;13.93;8.55;;;;;;;18.32;72.82;101902.41;5009599;28;20527;-49
2022/07/07 02:08:29;;;;;;;14.23;8.57;;;;;;;18.32;73.20;101910.31;5006746;28;20038;-48
2022/07/07 02:11:13;;;;;;;13.00;8.85;;;;;;;18.34;73.22;101903.31;5008460;28;20029;-50
2022/07/07 02:13:43;;;;;;;13.85;8.38;;;;;;;18.34;72.60;101903.31;5009780;28;20083;-50
2022/07/07 02:16:09;;;;;;;14.02;8.52;;;;;;;18.33;73.81;101901.53;5010454;28;20374;-50
2022/07/07 02:18:37;;;;;;;14.40;8.02;;;;;;;18.31;74.25;101903.28;5007707;28;20046;-48
2022/07/07 02:21:05;;;;;;;15.80;9.38;;;;;;;18.33;73.84;101891.00;5014544;28;20153;-50
2022/07/07 02:23:31;;;;;;;15.30;8.65;;;;;;;18.32;74.23;101890.13;5008703;28;20122;-51
2022/07/07 02:25:56;;;;;;;12.38;7.95;;;;;;;18.32;74.45;101884.84;5010130;28;20050;-49
2022/07/07 02:28:23;;;;;;;14.63;8.25;;;;;;;18.31;74.27;101895.38;5007534;28;20169;-50
2022/07/07 02:30:49;;;;;;;16.25;8.18;;;;;;;18.28;75.37;101890.06;5010043;28;20108;-47
2022/07/07 02:33:15;;;;;;;13.15;7.80;;;;;;;18.27;74.24;101890.94;5007166;28;20387;-48
2022/07/07 02:35:41;;;;;;;12.07;7.00;;;;;;;18.26;75.13;101890.03;5006798;28;20029;-48
2022/07/07 02:38:06;;;;;;;14.32;7.50;;;;;;;18.28;75.29;101887.41;5007216;28;20030;-48
2022/07/07 02:40:31;;;;;;;11.88;7.38;;;;;;;18.29;74.21;101879.50;5009432;28;20029;-48
2022/07/07 02:42:57;;;;;;;13.15;7.10;;;;;;;18.29;74.49;101878.63;5007804;28;20488;-48
2022/07/07 02:45:22;;;;;;;11.55;6.65;;;;;;;18.25;74.86;101881.25;5008438;28;20044;-48
2022/07/07 02:47:47;;;;;;;12.02;6.53;;;;;;;18.27;75.00;101883.91;5009823;28;20176;-49
2022/07/07 02:50:13;;;;;;;10.95;6.13;;;;;;;18.28;74.17;101887.41;4997188;28;20034;-49
2022/07/07 02:52:38;;;;;;;9.93;5.95;;;;;;;18.28;74.29;101883.03;5001202;28;20576;-52
2022/07/07 02:55:04;;;;;;;10.73;5.90;;;;;;;18.28;74.83;101868.94;5007146;28;20038;-48
2022/07/07 02:57:29;;;;;;;11.18;6.35;;;;;;;18.27;75.24;101878.63;5008523;28;20017;-50
2022/07/07 02:59:54;;;;;;;10.13;5.95;;;;;;;18.27;74.77;101888.31;5009417;28;20025;-48
2022/07/07 03:02:19;;;;;;;13.00;6.10;;;;;;;18.26;74.70;101887.41;5009230;28;20076;-48
2022/07/07 03:04:45;;;;;;;129.65;11.38;;;;;;;18.34;74.63;101898.03;5007110;28;20049;-48
2022/07/07 03:07:10;;;;;;;9.13;4.80;;;;;;;18.31;74.37;101887.47;5008416;28;20042;-48
2022/07/07 03:09:36;;;;;;;8.30;4.93;;;;;;;18.27;74.54;101890.94;5006553;28;20038;-49
2022/07/07 03:12:01;;;;;;;7.82;4.22;;;;;;;18.26;75.08;101900.59;5010352;28;20037;-50
2022/07/07 03:14:26;;;;;;;7.40;4.10;;;;;;;18.25;74.53;101896.22;5008937;28;20037;-48
2022/07/07 03:16:52;;;;;;;6.50;4.20;;;;;;;18.21;75.29;101907.59;5008974;28;20033;-49
2022/07/07 03:19:17;;;;;;;10.00;3.90;;;;;;;18.14;75.39;101909.28;5006159;28;20064;-47
2022/07/07 03:21:42;;;;;;;6.78;4.30;;;;;;;18.12;75.45;101905.75;5007255;28;20397;-48
2022/07/07 03:24:08;;;;;;;7.90;4.35;;;;;;;18.10;76.06;101909.25;5007694;28;20439;-47
2022/07/07 03:26:33;;;;;;;9.30;4.50;;;;;;;18.07;76.25;101908.38;5004347;28;20553;-56
2022/07/07 03:28:58;;;;;;;7.10;4.47;;;;;;;18.02;76.04;101903.91;5008862;28;20037;-56
2022/07/07 03:31:24;;;;;;;9.43;4.63;;;;;;;17.99;76.21;101911.81;5008084;28;20033;-56
2022/07/07 03:33:49;;;;;;;5.97;4.03;;;;;;;17.95;76.18;101907.34;5008512;28;20141;-56
2022/07/07 03:36:14;;;;;;;7.10;4.18;;;;;;;17.90;76.91;101910.81;5008468;28;20552;-56
2022/07/07 03:38:40;;;;;;;7.63;4.20;;;;;;;17.87;77.45;101923.94;5006456;28;20022;-56
2022/07/07 03:41:05;;;;;;;11.20;4.50;;;;;;;17.85;77.47;101916.88;5008430;28;20045;-55
2022/07/07 03:43:30;;;;;;;7.20;4.65;;;;;;;17.84;76.79;101915.09;5006393;28;20076;-55
2022/07/07 03:45:56;;;;;;;6.25;4.43;;;;;;;17.80;77.86;101908.03;5007228;28;20026;-55
2022/07/07 03:48:21;;;;;;;7.15;4.45;;;;;;;17.78;77.96;101902.75;5003112;28;20033;-55
2022/07/07 03:50:47;;;;;;;7.05;4.60;;;;;;;17.73;77.78;101904.47;5003869;28;21451;-56
2022/07/07 03:53:12;;;;;;;6.85;3.85;;;;;;;17.68;78.19;101906.16;5008810;28;20088;-56
2022/07/07 03:55:38;;;;;;;6.80;4.32;;;;;;;17.67;78.24;101907.00;5007722;28;20036;-56
2022/07/07 03:58:03;;;;;;;6.45;4.00;;;;;;;17.63;78.15;101906.09;5007037;28;20556;-49
2022/07/07 04:00:29;;;;;;;6.88;4.20;;;;;;;17.61;78.35;101907.84;5003855;28;20477;-47
2022/07/07 04:02:54;;;;;;;7.03;4.90;;;;;;;17.52;80.07;101911.25;5005299;28;20108;-46
2022/07/07 04:05:20;;;;;;;6.97;4.57;;;;;;;17.54;79.06;101898.09;5006811;28;20045;-47
2022/07/07 04:07:45;;;;;;;8.07;4.57;;;;;;;17.52;79.28;101895.44;5010309;28;20444;-48
2022/07/07 04:10:11;;;;;;;7.93;5.10;;;;;;;17.50;79.36;101891.88;5011708;28;20037;-46
2022/07/07 04:12:36;;;;;;;6.80;5.03;;;;;;;17.48;79.61;101893.63;5009537;28;20026;-46
2022/07/07 04:15:02;;;;;;;8.20;5.20;;;;;;;17.43;79.89;101879.50;5011826;28;20021;-46
2022/07/07 04:17:27;;;;;;;8.27;5.47;;;;;;;17.41;79.63;101881.25;5010898;28;20041;-47
2022/07/07 04:19:52;;;;;;;9.40;5.38;;;;;;;17.40;79.99;101886.50;5011826;28;20508;-49
2022/07/07 04:22:18;;;;;;;8.75;5.22;;;;;;;17.37;80.36;101882.06;5009712;28;20045;-46
2022/07/07 04:24:43;;;;;;;9.77;5.55;;;;;;;17.35;80.42;101883.78;5010429;28;20520;-47
2022/07/07 04:27:09;;;;;;;8.50;5.35;;;;;;;17.34;80.82;101885.56;5009976;28;20461;-46
2022/07/07 04:29:34;;;;;;;8.40;5.88;;;;;;;17.37;79.94;101879.44;5012655;28;20038;-50
2022/07/07 04:32:00;;;;;;;9.13;5.60;;;;;;;17.35;80.08;101878.53;5012274;28;20030;-47
2022/07/07 04:34:25;;;;;;;7.70;6.07;;;;;;;17.35;80.20;101881.16;5010127;28;20240;-51
2022/07/07 04:36:51;;;;;;;9.10;6.20;;;;;;;17.33;81.39;101890.81;5011778;28;20740;-48
2022/07/07 04:39:17;;;;;;;9.30;6.20;;;;;;;17.34;80.48;101900.50;5011542;28;20473;-48
2022/07/07 04:41:42;;;;;;;9.30;6.38;;;;;;;17.34;81.43;101903.13;5010828;28;20057;-49
2022/07/07 04:44:07;;;;;;;9.50;6.47;;;;;;;17.33;81.80;101906.63;5010079;28;20050;-47
2022/07/07 04:46:33;;;;;;;9.30;6.72;;;;;;;17.32;81.90;101918.00;5009801;28;20034;-48
2022/07/07 04:48:59;;;;;;;9.90;6.07;;;;;;;17.28;81.73;101916.19;5012181;28;20133;-47
2022/07/07 04:51:24;;;;;;;8.02;4.68;;;;;;;17.25;81.68;101919.69;5011483;28;20026;-46
2022/07/07 04:53:49;;;;;;;7.03;4.43;;;;;;;17.21;81.53;101931.06;5013193;28;20037;-50
2022/07/07 04:56:15;;;;;;;7.57;3.88;;;;;;;17.15;82.04;101920.44;5009320;28;20029;-48
2022/07/07 04:58:41;;;;;;;5.68;3.40;;;;;;;17.10;81.71;101920.34;5011489;28;20022;-48
2022/07/07 05:01:10;;;;;;;5.40;3.53;;;;;;;17.07;82.69;101920.31;5011152;28;20125;-47
2022/07/07 05:03:35;;;;;;;6.28;3.33;;;;;;;17.07;81.72;101928.22;5009007;28;20030;-49
2022/07/07 05:06:01;;;;;;;7.20;3.42;;;;;;;17.08;81.21;101923.84;5010077;28;20716;-47
2022/07/07 05:08:29;;;;;;;9.90;3.42;;;;;;;17.05;81.13;101929.94;5010517;28;20112;-47
2022/07/07 05:10:54;;;;;;;8.25;3.75;;;;;;;17.07;81.10;101928.22;5008705;28;20485;-46
2022/07/07 05:13:19;;;;;;;6.95;3.25;;;;;;;17.05;82.17;101935.22;5008312;28;20032;-46
2022/07/07 05:15:45;;;;;;;6.95;3.40;;;;;;;17.08;82.18;101940.53;5009512;28;20477;-47
2022/07/07 05:18:10;;;;;;;8.55;3.25;;;;;;;17.08;82.07;101943.16;5007514;28;20030;-46
2022/07/07 05:20:36;;;;;;;9.73;3.42;;;;;;;17.08;81.85;101945.78;5010843;28;20397;-46
2022/07/07 05:23:01;;;;;;;8.98;3.25;;;;;;;17.07;82.10;101949.28;5009639;28;20034;-46
2022/07/07 05:25:26;;;;;;;6.07;3.10;;;;;;;17.09;81.53;101957.19;5007804;28;20041;-46
2022/07/07 05:27:53;;;;;;;7.45;3.30;;;;;;;17.09;81.85;101952.84;5011378;28;20044;-46
2022/07/07 05:30:19;;;;;;;8.05;3.55;;;;;;;17.07;83.11;101954.53;5010394;28;20034;-48
2022/07/07 05:32:44;;;;;;;9.85;3.72;;;;;;;17.08;82.50;101956.31;5011591;28;20061;-49
2022/07/07 05:35:10;;;;;;;7.18;3.47;;;;;;;17.10;82.91;101957.22;5010213;28;20380;-47
2022/07/07 05:37:35;;;;;;;6.90;3.70;;;;;;;17.08;83.23;101956.31;5007127;28;20056;-46
2022/07/07 05:40:00;;;;;;;8.02;3.50;;;;;;;17.10;82.83;101964.25;5006458;28;20140;-46
2022/07/07 05:42:26;;;;;;;7.03;3.28;;;;;;;17.10;82.64;101962.47;5011309;28;20029;-48
2022/07/07 05:44:51;;;;;;;13.55;3.47;;;;;;;17.13;82.96;101964.28;5010005;28;20493;-46
2022/07/07 05:47:16;;;;;;;7.20;3.20;;;;;;;17.16;81.97;101977.50;5007575;28;20061;-46
2022/07/07 05:49:42;;;;;;;8.45;3.35;;;;;;;17.17;81.88;101972.25;5010924;28;20087;-49
2022/07/07 05:52:07;;;;;;;8.80;3.40;;;;;;;17.19;81.73;101986.34;5009536;28;20036;-47
2022/07/07 05:54:32;;;;;;;8.48;3.10;;;;;;;17.18;81.73;101988.97;5011363;28;20046;-48
2022/07/07 05:56:58;;;;;;;8.20;3.15;;;;;;;17.18;82.34;101979.28;5009376;28;20041;-48
2022/07/07 05:59:24;;;;;;;7.32;3.47;;;;;;;17.20;81.94;101997.75;5008474;28;20030;-51
2022/07/07 06:01:49;;;;;;;8.35;3.15;;;;;;;17.16;81.87;101999.47;5009357;28;20069;-49
2022/07/07 06:04:14;;;;;;;7.90;3.10;;;;;;;17.12;83.45;102010.81;5008506;28;20045;-46
2022/07/07 06:06:40;;;;;;;7.93;2.67;;;;;;;17.10;82.35;102016.91;5010876;28;20029;-46
2022/07/07 06:09:05;;;;;;;10.68;2.75;;;;;;;17.09;82.53;102016.03;5007535;28;20018;-47
2022/07/07 06:11:30;;;;;;;8.18;2.45;;;;;;;17.06;82.42;102010.72;5008094;28;20033;-46
2022/07/07 06:13:55;;;;;;;6.28;2.58;;;;;;;17.04;83.00;102023.84;5008341;28;20026;-46
2022/07/07 06:16:38;;;;;;;9.27;2.38;;;;;;;17.01;83.03;102018.53;5007909;28;20435;-47
2022/07/07 06:19:08;;;;;;;8.73;2.55;;;;;;;17.05;82.84;102035.28;5006442;28;20022;-48
2022/07/07 06:21:34;;;;;;;10.60;2.40;;;;;;;17.07;83.47;102051.09;5004377;28;20068;-46
2022/07/07 06:23:59;;;;;;;9.20;2.55;;;;;;;17.08;82.80;102040.59;5011727;28;20079;-46
2022/07/07 06:26:24;;;;;;;7.82;2.30;;;;;;;17.09;82.81;102045.00;5020850;28;20030;-47
2022/07/07 06:28:50;;;;;;;11.95;2.92;;;;;;;17.12;83.01;102047.69;5015686;28;20033;-49
2022/07/07 06:31:15;;;;;;;12.43;2.05;;;;;;;17.10;81.30;102054.66;5008943;28;20037;-45
2022/07/07 06:33:40;;;;;;;13.57;2.28;;;;;;;17.08;80.00;102059.03;5003708;28;20025;-46
2022/07/07 06:36:06;;;;;;;10.35;2.38;;;;;;;17.06;79.99;102060.75;5003841;28;20037;-46
2022/07/07 06:38:32;;;;;;;12.07;2.35;;;;;;;17.07;80.21;102051.09;5003641;28;20037;-46
2022/07/07 06:40:58;;;;;;;13.95;2.60;;;;;;;17.09;80.97;102063.44;5008569;28;20075;-46
2022/07/07 06:43:24;;;;;;;14.65;2.50;;;;;;;17.12;80.46;102060.84;5007925;28;20500;-46
2022/07/07 06:45:49;;;;;;;14.43;2.33;;;;;;;17.16;80.36;102073.22;5009706;28;20038;-47
2022/07/07 06:48:14;;;;;;;11.63;2.10;;;;;;;17.20;79.68;102076.78;5012978;28;20465;-46
2022/07/07 06:50:40;;;;;;;13.13;2.40;;;;;;;17.18;79.16;102092.56;5007503;28;20559;-48
2022/07/07 06:53:05;;;;;;;20.52;2.63;;;;;;;17.18;79.14;102105.72;5017472;28;20465;-46
2022/07/07 06:55:31;;;;;;;8.27;1.40;;;;;;;17.14;78.50;102106.53;5005768;28;20072;-46
2022/07/07 06:57:56;;;;;;;6.65;1.30;;;;;;;17.09;77.67;102100.31;5008324;28;20370;-46
2022/07/07 07:00:22;;;;;;;9.35;1.50;;;;;;;17.02;77.52;102098.44;5006114;28;20477;-47
2022/07/07 07:02:48;;;;;;;7.00;1.60;;;;;;;16.99;78.92;102103.66;5001606;28;20092;-46
2022/07/07 07:05:14;;;;;;;7.65;1.67;;;;;;;17.01;80.16;102109.81;5000850;28;20057;-46
2022/07/07 07:07:39;;;;;;;10.00;1.92;;;;;;;17.07;81.63;102101.16;5003502;28;20109;-46
2022/07/07 07:10:05;;;;;;;8.90;1.80;;;;;;;17.11;79.29;102089.81;5001668;28;20040;-45
2022/07/07 07:12:30;;;;;;;8.27;1.70;;;;;;;17.17;80.65;102092.53;5000443;28;20458;-48
2022/07/07 07:14:56;;;;;;;8.32;1.80;;;;;;;17.24;79.85;102104.94;5003284;28;20038;-47
2022/07/07 07:17:21;;;;;;;8.60;1.60;;;;;;;17.29;79.45;102107.63;5001532;28;20037;-46
2022/07/07 07:19:47;;;;;;;8.20;1.90;;;;;;;17.33;78.65;102098.94;5002513;28;20018;-46
2022/07/07 07:22:12;;;;;;;7.90;1.52;;;;;;;17.38;77.77;102102.53;5003299;28;20049;-47
2022/07/07 07:24:37;;;;;;;7.45;1.75;;;;;;;17.44;77.01;102096.44;5006743;28;20037;-48
2022/07/07 07:27:03;;;;;;;7.45;1.75;;;;;;;17.51;76.11;102099.22;5004969;28;20025;-46
2022/07/07 07:29:28;;;;;;;9.05;1.55;;;;;;;17.55;75.86;102110.69;5003932;28;20030;-46
2022/07/07 07:31:54;;;;;;;7.55;1.30;;;;;;;17.61;75.17;102120.44;5009714;28;20481;-47
2022/07/07 07:34:19;;;;;;;9.32;1.63;;;;;;;17.64;74.96;102118.75;5010412;28;20112;-47
2022/07/07 07:36:44;;;;;;;9.85;1.70;;;;;;;17.70;76.52;102117.94;5009279;28;20022;-50
2022/07/07 07:39:11;;;;;;;8.43;2.15;;;;;;;17.77;75.92;102118.91;5010106;28;20108;-46
2022/07/07 07:41:37;;;;;;;6.18;1.90;;;;;;;17.83;76.29;102121.63;5009040;28;20519;-47
2022/07/07 07:44:03;;;;;;;7.00;1.75;;;;;;;17.83;74.30;102127.78;5017122;28;20026;-46
2022/07/07 07:46:28;;;;;;;8.48;1.50;;;;;;;17.85;73.85;102127.81;5009767;28;20021;-48
2022/07/07 07:48:53;;;;;;;5.47;2.00;;;;;;;17.83;73.76;102130.44;5019311;28;20028;-47
2022/07/07 07:51:19;;;;;;;8.40;1.60;;;;;;;17.82;73.93;102133.94;5022883;28;20038;-47
2022/07/07 07:53:44;;;;;;;7.95;1.70;;;;;;;17.85;74.11;102136.59;5020429;28;20036;-47
2022/07/07 07:56:10;;;;;;;5.35;1.67;;;;;;;17.88;74.76;102141.91;5015781;28;20470;-49
2022/07/07 07:58:35;;;;;;;5.80;1.55;;;;;;;17.92;74.43;102139.38;5012274;28;20517;-48
2022/07/07 08:01:00;;;;;;;7.18;1.77;;;;;;;17.95;74.27;102139.41;5012442;28;20040;-47
2022/07/07 08:03:26;;;;;;;9.05;1.83;;;;;;;17.92;75.48;102153.44;5018770;28;20234;-50
2022/07/07 08:05:51;;;;;;;7.00;1.60;;;;;;;17.85;75.42;102149.78;5009705;28;20053;-47
2022/07/07 08:08:16;;;;;;;6.00;1.30;;;;;;;17.72;75.48;102143.44;5004832;28;20489;-48
2022/07/07 08:10:42;;;;;;;6.07;1.33;;;;;;;17.68;76.27;102157.47;5006304;28;20401;-46
2022/07/07 08:13:07;;;;;;;5.47;1.30;;;;;;;17.69;77.55;102153.06;5004021;28;20386;-46
2022/07/07 08:15:33;;;;;;;6.05;1.35;;;;;;;17.67;77.50;102157.41;5008529;28;20152;-48
2022/07/07 08:17:58;;;;;;;4.88;1.30;;;;;;;17.69;77.95;102160.97;5013472;28;20297;-46
2022/07/07 08:20:23;;;;;;;6.05;1.25;;;;;;;17.68;78.16;102169.75;5009980;28;20030;-47
2022/07/07 08:22:49;;;;;;;5.50;1.38;;;;;;;17.71;77.91;102161.88;5011203;28;20493;-47
2022/07/07 08:25:14;;;;;;;5.40;1.60;;;;;;;17.67;77.11;102184.69;5009648;28;20022;-48
2022/07/07 08:27:40;;;;;;;10.73;1.60;;;;;;;17.69;76.96;102179.44;5011630;28;20026;-47
2022/07/07 08:30:06;;;;;;;9.82;1.80;;;;;;;17.69;77.01;102182.06;5011194;28;20103;-48
2022/07/07 08:32:31;;;;;;;7.85;1.40;;;;;;;17.70;77.89;102184.72;5005475;28;20025;-47
2022/07/07 08:34:57;;;;;;;5.47;1.40;;;;;;;17.74;76.35;102169.81;5004477;28;20124;-47
2022/07/07 08:37:22;;;;;;;5.50;1.23;;;;;;;17.75;76.58;102187.44;5003732;28;20592;-46
2022/07/07 08:39:47;;;;;;;6.00;1.30;;;;;;;17.73;74.95;102187.41;5005866;28;20101;-47
2022/07/07 08:42:13;;;;;;;3.30;1.10;;;;;;;17.70;74.21;102173.31;5012844;28;20454;-47
2022/07/07 08:44:39;;;;;;;3.60;0.88;;;;;;;17.69;74.77;102184.69;5012470;28;20018;-47
2022/07/07 08:47:04;;;;;;;6.80;1.20;;;;;;;17.66;73.43;102182.91;5016534;28;20029;-49
2022/07/07 08:49:30;;;;;;;7.20;1.20;;;;;;;17.66;75.00;102176.75;5016970;28;20069;-49
2022/07/07 08:51:56;;;;;;;7.20;1.20;;;;;;;17.73;75.60;102173.34;5013206;28;20037;-46
2022/07/07 08:54:23;;;;;;;5.05;1.30;;;;;;;17.89;77.93;102174.47;5018501;28;20033;-48
2022/07/07 08:56:49;;;;;;;8.63;1.58;;;;;;;18.02;78.40;102176.44;5011202;28;20049;-57
2022/07/07 08:59:14;;;;;;;6.55;1.70;;;;;;;18.15;78.63;102177.50;5000819;28;20120;-56
2022/07/07 09:01:41;;;;;;;6.53;1.63;;;;;;;18.21;76.41;102192.53;5011489;28;20029;-57
2022/07/07 09:04:06;;;;;;;9.65;2.30;;;;;;;18.20;76.20;102196.03;5010725;28;20042;-57
2022/07/07 09:06:32;;;;;;;6.13;1.80;;;;;;;18.17;74.12;102191.59;5012032;28;20400;-57
2022/07/07 09:08:59;;;;;;;7.05;1.90;;;;;;;18.11;74.33;102195.91;5011089;28;20473;-57
2022/07/07 09:11:29;;;;;;;6.57;1.73;;;;;;;18.07;74.05;102194.97;5012764;28;20029;-57
2022/07/07 09:14:10;;;;;;;7.15;1.60;;;;;;;18.02;73.80;102207.22;5011664;28;20567;-57
2022/07/07 09:16:36;;;;;;;7.22;1.45;;;;;;;17.98;72.79;102201.00;5011466;28;20033;-57
2022/07/07 09:19:02;;;;;;;6.05;1.50;;;;;;;17.95;72.98;102210.63;5011745;28;20340;-57
2022/07/07 09:21:30;;;;;;;8.65;1.65;;;;;;;17.93;72.74;102223.78;5011030;28;20616;-57
2022/07/07 09:23:58;;;;;;;6.90;1.65;;;;;;;17.89;73.25;102225.44;5011561;28;20485;-57
2022/07/07 09:26:50;;;;;;;6.85;1.35;;;;;;;17.92;73.45;102221.13;5011776;28;20106;-56
2022/07/07 09:29:20;;;;;;;8.05;1.50;;;;;;;17.94;73.12;102219.38;5010877;28;20045;-57
2022/07/07 09:31:58;;;;;;;7.88;1.45;;;;;;;17.98;73.73;102222.09;5011454;28;20032;-57
2022/07/07 09:34:27;;;;;;;5.22;1.25;;;;;;;18.01;73.49;102232.69;5008170;28;20504;-56
2022/07/07 09:39:46;;;;;;;6.38;1.48;;;;;;;18.06;73.47;102230.09;5006404;28;20084;-57
2022/07/07 09:42:20;;;;;;;7.25;1.45;;;;;;;18.10;73.58;102234.56;5012014;28;20084;-55
2022/07/07 09:44:48;;;;;;;7.28;1.30;;;;;;;18.15;74.27;102232.03;5011200;28;20061;-57
2022/07/07 09:47:13;;;;;;;8.48;1.20;;;;;;;18.16;73.73;102237.31;5010449;28;20551;-57
2022/07/07 09:49:45;;;;;;;5.07;1.40;;;;;;;18.19;73.12;102250.56;5012042;28;20030;-57
2022/07/07 09:52:15;;;;;;;6.20;1.50;;;;;;;18.22;72.65;102255.00;5010175;28;20047;-57
2022/07/07 09:54:48;;;;;;;8.13;1.52;;;;;;;18.20;71.41;102254.94;5010654;28;20036;-57
2022/07/07 09:57:14;;;;;;;6.93;1.50;;;;;;;18.18;70.89;102269.88;5010985;28;20401;-57
2022/07/07 09:59:41;;;;;;;6.18;1.52;;;;;;;18.12;71.20;102264.50;5011853;28;20469;-57
2022/07/07 10:02:12;;;;;;;4.00;1.30;;;;;;;18.08;71.36;102274.13;5011678;28;20042;-57
2022/07/07 10:04:42;;;;;;;7.22;1.73;;;;;;;18.07;72.36;102279.38;5010678;28;20050;-57
2022/07/07 10:07:09;;;;;;;7.25;1.80;;;;;;;18.02;72.70;102274.03;5010319;28;20507;-56
2022/07/07 10:09:34;;;;;;;5.07;1.80;;;;;;;18.03;74.35;102275.81;5005319;28;21311;-57
2022/07/07 10:12:02;;;;;;;6.47;1.60;;;;;;;18.10;75.78;102294.38;5007401;28;20785;-57
2022/07/07 10:14:35;;;;;;;7.63;1.75;;;;;;;18.15;75.29;102287.41;5011233;28;20052;-56
2022/07/07 10:17:02;;;;;;;6.13;1.60;;;;;;;18.18;75.26;102288.34;5017291;28;20029;-56
2022/07/07 10:19:27;;;;;;;5.30;1.55;;;;;;;18.18;74.40;102290.97;5020702;28;20038;-56
2022/07/07 10:21:55;;;;;;;11.40;1.88;;;;;;;18.16;74.75;102291.81;5008265;28;20129;-56
2022/07/07 10:24:22;;;;;;;6.25;1.90;;;;;;;18.10;75.51;102295.25;5005826;28;21713;-57
2022/07/07 10:26:49;;;;;;;9.27;1.80;;;;;;;18.07;75.91;102311.03;5006023;28;20025;-47
2022/07/07 10:29:15;;;;;;;8.32;1.90;;;;;;;17.99;76.30;102315.31;5012121;28;20517;-47
2022/07/07 10:31:40;;;;;;;4.38;2.03;;;;;;;17.98;77.32;102308.25;5015660;28;20059;-47
2022/07/07 10:34:11;;;;;;;8.48;2.22;;;;;;;17.93;77.65;102318.72;5009192;28;20458;-47
2022/07/07 10:36:49;;;;;;;9.10;2.10;;;;;;;17.97;78.00;102322.28;5004247;28;20038;-48
2022/07/07 10:39:26;;;;;;;5.35;2.03;;;;;;;18.02;79.92;102321.50;5002741;28;20117;-46
2022/07/07 10:42:15;;;;;;;5.18;2.03;;;;;;;18.12;79.59;102325.19;5002155;28;20113;-46
2022/07/07 10:44:42;;;;;;;7.38;2.17;;;;;;;18.19;81.36;102332.34;5002605;28;20481;-47
2022/07/07 10:47:10;;;;;;;7.65;1.90;;;;;;;18.26;80.24;102330.66;5002700;28;20028;-47
2022/07/07 10:49:44;;;;;;;5.68;1.90;;;;;;;18.25;78.24;102321.88;5001246;28;20332;-50
2022/07/07 10:52:11;;;;;;;6.97;1.63;;;;;;;18.27;77.74;102323.66;5009031;28;20108;-48
2022/07/07 10:54:59;;;;;;;8.23;2.08;;;;;;;18.26;76.63;102330.66;5006475;28;20030;-48
2022/07/07 10:57:38;;;;;;;5.20;2.08;;;;;;;18.24;76.99;102332.41;5005831;28;20465;-57
2022/07/07 11:00:08;;;;;;;10.18;2.42;;;;;;;18.25;76.88;102344.75;5002282;28;20117;-57
2022/07/07 11:02:41;;;;;;;6.95;2.50;;;;;;;18.21;78.15;102351.69;5002402;28;20033;-56
2022/07/07 11:05:09;;;;;;;7.90;2.42;;;;;;;18.21;78.85;102356.09;5006042;28;20112;-56
2022/07/07 11:07:35;;;;;;;5.50;2.63;;;;;;;18.23;78.77;102354.38;5006200;28;20125;-56
2022/07/07 11:10:11;;;;;;;7.25;2.78;;;;;;;18.28;80.42;102360.63;5002073;28;20400;-56
2022/07/07 11:12:50;;;;;;;6.85;2.42;;;;;;;18.30;77.72;102356.25;5002811;28;20081;-56
2022/07/07 11:15:21;;;;;;;6.55;2.35;;;;;;;18.34;79.66;102359.84;5007691;28;20116;-57
2022/07/07 11:17:53;;;;;;;6.97;2.58;;;;;;;18.38;78.21;102366.94;5016250;28;20098;-56
2022/07/07 11:20:32;;;;;;;9.82;3.13;;;;;;;18.45;78.22;102371.44;5015138;28;20058;-55
2022/07/07 11:23:08;;;;;;;7.10;2.92;;;;;;;18.49;77.86;102373.25;5011701;28;20029;-56